sensor_id;sensor_type;location;lat;lon;timestamp;pressure;altitude;pressure_sealevel;temperature;humidity
37078;BME280;22989;55.998;37.212;2023-05-10T00:00:55;97930.28;;;-145.39;31.76
37078;BME280;22989;55.998;37.212;2023-05-10T00:03:21;97676.84;;;-145.39;31.60
37078;BME280;22989;55.998;37.212;2023-05-10T00:05:46;97676.84;;;-145.39;31.40
37078;BME280;22989;55.998;37.212;2023-05-10T00:08:11;97676.84;;;-145.39;31.40
37078;BME280;22989;55.998;37.212;2023-05-10T00:10:37;97676.84;;;-145.39;31.48
37078;BME280;22989;55.998;37.212;2023-05-10T00:13:02;97930.28;;;-145.39;31.54
37078;BME280;22989;55.998;37.212;2023-05-10T00:15:28;97676.84;;;-145.39;31.46
37078;BME280;22989;55.998;37.212;2023-05-10T00:17:55;97676.84;;;-145.39;31.56
37078;BME280;22989;55.998;37.212;2023-05-10T00:20:21;97930.28;;;-145.39;31.50
37078;BME280;22989;55.998;37.212;2023-05-10T00:22:46;97676.84;;;-145.39;31.46
37078;BME280;22989;55.998;37.212;2023-05-10T00:25:12;97676.84;;;-145.39;31.38
37078;BME280;22989;55.998;37.212;2023-05-10T00:27:37;97676.84;;;-145.39;31.18
37078;BME280;22989;55.998;37.212;2023-05-10T00:30:03;97423.47;;;-145.39;31.16
37078;BME280;22989;55.998;37.212;2023-05-10T00:32:29;97676.84;;;-145.39;31.17
37078;BME280;22989;55.998;37.212;2023-05-10T00:34:55;97423.47;;;-145.39;31.13
37078;BME280;22989;55.998;37.212;2023-05-10T00:37:20;97676.84;;;-145.39;31.08
37078;BME280;22989;55.998;37.212;2023-05-10T00:39:45;97676.84;;;-145.39;31.30
37078;BME280;22989;55.998;37.212;2023-05-10T00:42:11;97676.84;;;-145.39;31.47
37078;BME280;22989;55.998;37.212;2023-05-10T00:44:36;97930.28;;;-145.39;31.52
37078;BME280;22989;55.998;37.212;2023-05-10T00:47:02;97930.28;;;-145.39;31.32
37078;BME280;22989;55.998;37.212;2023-05-10T00:49:28;97930.28;;;-145.39;31.23
37078;BME280;22989;55.998;37.212;2023-05-10T00:51:53;97930.28;;;-145.39;31.23
37078;BME280;22989;55.998;37.212;2023-05-10T00:54:19;97676.84;;;-145.39;31.13
37078;BME280;22989;55.998;37.212;2023-05-10T00:56:45;97676.84;;;-145.39;31.08
37078;BME280;22989;55.998;37.212;2023-05-10T00:59:14;97676.84;;;-145.39;31.18
37078;BME280;22989;55.998;37.212;2023-05-10T01:01:39;97930.28;;;-145.39;31.59
37078;BME280;22989;55.998;37.212;2023-05-10T01:04:05;97930.28;;;-145.39;31.57
37078;BME280;22989;55.998;37.212;2023-05-10T01:06:31;97930.28;;;-145.39;31.68
37078;BME280;22989;55.998;37.212;2023-05-10T01:08:57;98183.72;;;-145.39;31.85
37078;BME280;22989;55.998;37.212;2023-05-10T01:11:22;98183.72;;;-145.39;31.68
37078;BME280;22989;55.998;37.212;2023-05-10T01:13:50;98183.72;;;-145.39;31.46
37078;BME280;22989;55.998;37.212;2023-05-10T01:16:17;98183.72;;;-145.39;31.60
37078;BME280;22989;55.998;37.212;2023-05-10T01:18:43;98183.72;;;-145.39;31.54
37078;BME280;22989;55.998;37.212;2023-05-10T01:34:06;97676.84;;;-145.39;31.33
37078;BME280;22989;55.998;37.212;2023-05-10T01:36:36;97676.84;;;-145.39;31.46
37078;BME280;22989;55.998;37.212;2023-05-10T01:44:11;97676.84;;;-145.39;31.25
37078;BME280;22989;55.998;37.212;2023-05-10T01:46:41;97676.84;;;-145.39;31.41
37078;BME280;22989;55.998;37.212;2023-05-10T01:49:11;97930.28;;;-145.39;31.56
37078;BME280;22989;55.998;37.212;2023-05-10T01:51:47;98183.72;;;-145.39;31.88
37078;BME280;22989;55.998;37.212;2023-05-10T01:54:14;98183.72;;;-145.39;31.58
37078;BME280;22989;55.998;37.212;2023-05-10T01:56:42;98183.72;;;-145.39;31.75
37078;BME280;22989;55.998;37.212;2023-05-10T01:59:11;98183.72;;;-145.39;31.98
37078;BME280;22989;55.998;37.212;2023-05-10T02:01:38;98183.72;;;-145.39;32.28
37078;BME280;22989;55.998;37.212;2023-05-10T02:04:06;98690.63;;;-145.39;32.69
37078;BME280;22989;55.998;37.212;2023-05-10T02:06:32;98944.09;;;-145.39;33.14
37078;BME280;22989;55.998;37.212;2023-05-10T02:08:58;99451.09;;;-145.39;33.37
37078;BME280;22989;55.998;37.212;2023-05-10T02:11:25;99451.09;;;-145.39;33.57
37078;BME280;22989;55.998;37.212;2023-05-10T02:13:53;99958.19;;;-145.39;34.13
37078;BME280;22989;55.998;37.212;2023-05-10T02:16:24;100465.31;;;-145.39;34.53
37078;BME280;22989;55.998;37.212;2023-05-10T02:18:52;100465.31;;;-145.39;34.54
37078;BME280;22989;55.998;37.212;2023-05-10T02:21:18;100718.91;;;-145.39;34.42
37078;BME280;22989;55.998;37.212;2023-05-10T02:23:44;100718.91;;;-145.39;34.50
37078;BME280;22989;55.998;37.212;2023-05-10T02:26:10;100972.50;;;-145.39;34.61
37078;BME280;22989;55.998;37.212;2023-05-10T02:28:37;101226.13;;;-145.39;34.90
37078;BME280;22989;55.998;37.212;2023-05-10T02:31:03;101479.75;;;-145.39;34.93
37078;BME280;22989;55.998;37.212;2023-05-10T02:33:29;101479.75;;;-145.39;34.87
37078;BME280;22989;55.998;37.212;2023-05-10T02:35:55;101733.41;;;-145.39;35.02
37078;BME280;22989;55.998;37.212;2023-05-10T02:38:21;101987.09;;;-145.39;34.99
37078;BME280;22989;55.998;37.212;2023-05-10T02:40:47;102240.78;;;-145.39;34.98
37078;BME280;22989;55.998;37.212;2023-05-10T02:43:14;102240.78;;;-145.39;35.02
37078;BME280;22989;55.998;37.212;2023-05-10T02:45:41;102240.78;;;-145.39;34.82
37078;BME280;22989;55.998;37.212;2023-05-10T02:48:08;102494.47;;;-145.39;34.80
37078;BME280;22989;55.998;37.212;2023-05-10T02:50:34;102748.19;;;-145.39;34.83
37078;BME280;22989;55.998;37.212;2023-05-10T02:53:01;102240.78;;;-145.39;34.02
37078;BME280;22989;55.998;37.212;2023-05-10T02:55:31;102240.78;;;-145.39;33.47
37078;BME280;22989;55.998;37.212;2023-05-10T02:57:58;102494.47;;;-145.39;33.67
37078;BME280;22989;55.998;37.212;2023-05-10T03:00:24;102748.19;;;-145.39;33.90
37078;BME280;22989;55.998;37.212;2023-05-10T03:02:50;102748.19;;;-145.39;33.79
37078;BME280;22989;55.998;37.212;2023-05-10T03:05:15;103001.91;;;-145.39;33.82
37078;BME280;22989;55.998;37.212;2023-05-10T03:07:41;103001.91;;;-145.39;33.46
37078;BME280;22989;55.998;37.212;2023-05-10T03:10:07;103255.66;;;-145.39;33.71
37078;BME280;22989;55.998;37.212;2023-05-10T03:15:22;103509.44;;;-145.39;33.05
37078;BME280;22989;55.998;37.212;2023-05-10T03:25:51;104017.00;;;-145.39;32.57
37078;BME280;22989;55.998;37.212;2023-05-10T03:28:17;104270.81;;;-145.39;32.48
37078;BME280;22989;55.998;37.212;2023-05-10T03:30:43;104270.81;;;-145.39;32.31
37078;BME280;22989;55.998;37.212;2023-05-10T03:33:10;104524.66;;;-145.39;32.18
37078;BME280;22989;55.998;37.212;2023-05-10T03:35:39;104778.50;;;-145.39;32.25
37078;BME280;22989;55.998;37.212;2023-05-10T03:38:05;104778.50;;;-145.39;32.09
37078;BME280;22989;55.998;37.212;2023-05-10T03:40:31;104778.50;;;-145.39;31.75
37078;BME280;22989;55.998;37.212;2023-05-10T03:42:58;105032.34;;;-145.39;31.78
37078;BME280;22989;55.998;37.212;2023-05-10T03:45:23;105032.34;;;-145.39;31.68
37078;BME280;22989;55.998;37.212;2023-05-10T03:47:49;105286.22;;;-145.39;31.62
37078;BME280;22989;55.998;37.212;2023-05-10T03:50:15;105286.22;;;-145.39;31.60
37078;BME280;22989;55.998;37.212;2023-05-10T03:52:40;105540.13;;;-145.39;31.17
37078;BME280;22989;55.998;37.212;2023-05-10T03:55:06;105540.13;;;-145.39;31.10
37078;BME280;22989;55.998;37.212;2023-05-10T03:57:32;105540.13;;;-145.39;30.70
37078;BME280;22989;55.998;37.212;2023-05-10T03:59:57;105540.13;;;-145.39;30.38
37078;BME280;22989;55.998;37.212;2023-05-10T04:02:23;105540.13;;;-145.39;30.00
37078;BME280;22989;55.998;37.212;2023-05-10T04:04:48;105794.03;;;-145.39;29.71
37078;BME280;22989;55.998;37.212;2023-05-10T04:07:14;105794.03;;;-145.39;29.56
37078;BME280;22989;55.998;37.212;2023-05-10T04:09:39;106047.97;;;-145.39;29.23
37078;BME280;22989;55.998;37.212;2023-05-10T04:12:05;105794.03;;;-145.39;28.96
37078;BME280;22989;55.998;37.212;2023-05-10T04:14:31;106047.97;;;-145.39;28.76
37078;BME280;22989;55.998;37.212;2023-05-10T04:16:56;106047.97;;;-145.39;28.55
37078;BME280;22989;55.998;37.212;2023-05-10T04:19:22;106047.97;;;-145.39;28.25
37078;BME280;22989;55.998;37.212;2023-05-10T04:21:47;106301.91;;;-145.39;28.01
37078;BME280;22989;55.998;37.212;2023-05-10T04:24:13;106301.91;;;-145.39;27.84
37078;BME280;22989;55.998;37.212;2023-05-10T04:26:38;106555.84;;;-145.39;27.67
37078;BME280;22989;55.998;37.212;2023-05-10T04:29:04;106809.81;;;-145.39;27.52
37078;BME280;22989;55.998;37.212;2023-05-10T04:31:29;106809.81;;;-145.39;27.46
37078;BME280;22989;55.998;37.212;2023-05-10T04:33:55;107063.81;;;-145.39;27.33
37078;BME280;22989;55.998;37.212;2023-05-10T04:36:20;107063.81;;;-145.39;27.06
37078;BME280;22989;55.998;37.212;2023-05-10T04:38:45;107317.81;;;-145.39;27.10
37078;BME280;22989;55.998;37.212;2023-05-10T04:41:11;107571.81;;;-145.39;26.91
37078;BME280;22989;55.998;37.212;2023-05-10T04:43:36;107825.88;;;-145.39;26.73
37078;BME280;22989;55.998;37.212;2023-05-10T04:46:03;108079.91;;;-145.39;26.61
37078;BME280;22989;55.998;37.212;2023-05-10T04:48:28;108333.97;;;-145.39;26.48
37078;BME280;22989;55.998;37.212;2023-05-10T04:50:53;108588.06;;;-145.39;26.12
37078;BME280;22989;55.998;37.212;2023-05-10T04:53:19;108842.16;;;-145.39;26.14
37078;BME280;22989;55.998;37.212;2023-05-10T04:55:44;109096.28;;;-145.39;25.99
37078;BME280;22989;55.998;37.212;2023-05-10T04:58:10;109350.41;;;-145.39;26.08
37078;BME280;22989;55.998;37.212;2023-05-10T05:00:36;109604.53;;;-145.39;26.05
37078;BME280;22989;55.998;37.212;2023-05-10T05:03:01;109604.53;;;-145.39;25.98
37078;BME280;22989;55.998;37.212;2023-05-10T05:05:27;109604.53;;;-145.39;25.81
37078;BME280;22989;55.998;37.212;2023-05-10T05:07:52;109858.72;;;-145.39;25.92
37078;BME280;22989;55.998;37.212;2023-05-10T05:10:17;109858.72;;;-145.39;25.75
37078;BME280;22989;55.998;37.212;2023-05-10T05:12:43;109858.72;;;-145.39;25.77
37078;BME280;22989;55.998;37.212;2023-05-10T05:15:08;109858.72;;;-145.39;25.85
37078;BME280;22989;55.998;37.212;2023-05-10T05:17:34;109858.72;;;-145.39;25.86
37078;BME280;22989;55.998;37.212;2023-05-10T05:20:00;109858.72;;;-145.39;26.05
37078;BME280;22989;55.998;37.212;2023-05-10T05:22:25;110112.88;;;-145.39;26.09
37078;BME280;22989;55.998;37.212;2023-05-10T05:24:54;110112.88;;;-145.39;26.15
37078;BME280;22989;55.998;37.212;2023-05-10T05:27:20;110367.09;;;-145.39;26.15
37078;BME280;22989;55.998;37.212;2023-05-10T05:29:52;110621.28;;;-145.39;26.12
37078;BME280;22989;55.998;37.212;2023-05-10T05:32:18;110621.28;;;-145.39;25.84
37078;BME280;22989;55.998;37.212;2023-05-10T05:34:44;110875.50;;;-145.39;25.79
37078;BME280;22989;55.998;37.212;2023-05-10T05:37:17;111129.75;;;-145.39;25.54
37078;BME280;22989;55.998;37.212;2023-05-10T05:39:43;111638.28;;;-145.39;25.57
37078;BME280;22989;55.998;37.212;2023-05-10T05:42:09;111892.56;;;-145.39;25.34
37078;BME280;22989;55.998;37.212;2023-05-10T05:44:35;111892.56;;;-145.39;24.94
37078;BME280;22989;55.998;37.212;2023-05-10T05:47:00;111892.56;;;-145.39;24.86
37078;BME280;22989;55.998;37.212;2023-05-10T05:49:26;112401.19;;;-145.39;25.03
37078;BME280;22989;55.998;37.212;2023-05-10T05:51:51;112401.19;;;-145.39;24.63
37078;BME280;22989;55.998;37.212;2023-05-10T05:54:16;112146.88;;;-145.39;24.57
37078;BME280;22989;55.998;37.212;2023-05-10T05:56:42;112401.19;;;-145.39;24.67
37078;BME280;22989;55.998;37.212;2023-05-10T05:59:09;112401.19;;;-145.39;24.53
37078;BME280;22989;55.998;37.212;2023-05-10T06:01:34;112401.19;;;-145.39;24.74
37078;BME280;22989;55.998;37.212;2023-05-10T06:04:00;112401.19;;;-145.39;24.79
37078;BME280;22989;55.998;37.212;2023-05-10T06:06:26;112655.53;;;-145.39;24.96
37078;BME280;22989;55.998;37.212;2023-05-10T06:08:52;112655.53;;;-145.39;25.01
37078;BME280;22989;55.998;37.212;2023-05-10T06:11:17;112655.53;;;-145.39;24.90
37078;BME280;22989;55.998;37.212;2023-05-10T06:13:43;112655.53;;;-145.39;24.57
37078;BME280;22989;55.998;37.212;2023-05-10T06:16:08;112909.88;;;-145.39;24.50
37078;BME280;22989;55.998;37.212;2023-05-10T06:18:34;113164.25;;;-145.39;24.07
37078;BME280;22989;55.998;37.212;2023-05-10T06:20:59;113418.63;;;-145.39;23.76
37078;BME280;22989;55.998;37.212;2023-05-10T06:23:25;114181.88;;;-145.39;23.06
37078;BME280;22989;55.998;37.212;2023-05-10T06:25:51;114945.25;;;-145.39;22.53
37078;BME280;22989;55.998;37.212;2023-05-10T06:28:17;115963.34;;;-145.39;22.10
37078;BME280;22989;55.998;37.212;2023-05-10T06:30:42;116981.66;;;-145.39;22.05
37078;BME280;22989;55.998;37.212;2023-05-10T06:33:07;116981.66;;;-145.39;20.26
37078;BME280;22989;55.998;37.212;2023-05-10T06:35:33;116983.66;;;-145.39;19.48
37078;BME280;22989;55.998;37.212;2023-05-10T06:37:58;63935.97;;;-145.39;100.00
37078;BME280;22989;55.998;37.212;2023-05-10T06:40:24;63935.97;;;-145.39;100.00
37078;BME280;22989;55.998;37.212;2023-05-10T06:42:49;63935.97;;;-145.39;100.00
37078;BME280;22989;55.998;37.212;2023-05-10T06:45:15;63935.97;;;-145.39;100.00
37078;BME280;22989;55.998;37.212;2023-05-10T06:47:41;63935.97;;;-145.39;100.00
37078;BME280;22989;55.998;37.212;2023-05-10T06:50:09;63935.97;;;-145.39;100.00
37078;BME280;22989;55.998;37.212;2023-05-10T06:52:36;63935.97;;;-145.39;100.00
37078;BME280;22989;55.998;37.212;2023-05-10T06:55:03;63935.97;;;-145.39;100.00
37078;BME280;22989;55.998;37.212;2023-05-10T06:57:28;63935.97;;;-145.39;100.00
37078;BME280;22989;55.998;37.212;2023-05-10T06:59:54;63935.97;;;-145.39;100.00
37078;BME280;22989;55.998;37.212;2023-05-10T07:02:21;63935.97;;;-145.39;100.00
37078;BME280;22989;55.998;37.212;2023-05-10T07:04:47;63935.97;;;-145.39;100.00
37078;BME280;22989;55.998;37.212;2023-05-10T07:07:13;63935.97;;;-145.39;100.00
37078;BME280;22989;55.998;37.212;2023-05-10T07:09:38;63935.97;;;-145.39;100.00
37078;BME280;22989;55.998;37.212;2023-05-10T07:12:04;63935.97;;;-145.39;100.00
37078;BME280;22989;55.998;37.212;2023-05-10T07:14:29;63935.97;;;-145.39;100.00
37078;BME280;22989;55.998;37.212;2023-05-10T07:16:55;63935.97;;;-145.39;100.00
37078;BME280;22989;55.998;37.212;2023-05-10T07:19:20;63935.97;;;-145.39;100.00
37078;BME280;22989;55.998;37.212;2023-05-10T07:21:46;63935.97;;;-145.39;100.00
37078;BME280;22989;55.998;37.212;2023-05-10T07:24:11;63935.97;;;-145.39;100.00
37078;BME280;22989;55.998;37.212;2023-05-10T07:26:37;63935.97;;;-145.39;100.00
37078;BME280;22989;55.998;37.212;2023-05-10T07:29:02;63935.97;;;-145.39;100.00
37078;BME280;22989;55.998;37.212;2023-05-10T07:31:27;63935.97;;;-145.39;100.00
37078;BME280;22989;55.998;37.212;2023-05-10T07:33:53;63935.97;;;-145.39;100.00
37078;BME280;22989;55.998;37.212;2023-05-10T07:36:19;63935.97;;;-145.39;100.00
37078;BME280;22989;55.998;37.212;2023-05-10T07:38:44;63935.97;;;-145.39;100.00
37078;BME280;22989;55.998;37.212;2023-05-10T07:41:11;63935.97;;;-145.39;100.00
37078;BME280;22989;55.998;37.212;2023-05-10T07:43:36;63935.97;;;-145.39;100.00
37078;BME280;22989;55.998;37.212;2023-05-10T07:46:02;63935.97;;;-145.39;100.00
37078;BME280;22989;55.998;37.212;2023-05-10T07:48:27;63935.97;;;-145.39;100.00
37078;BME280;22989;55.998;37.212;2023-05-10T07:50:53;116983.66;;;-145.39;19.48
37078;BME280;22989;55.998;37.212;2023-05-10T07:53:18;110621.28;;;-145.39;17.95
37078;BME280;22989;55.998;37.212;2023-05-10T07:55:44;110621.28;;;-145.39;18.16
37078;BME280;22989;55.998;37.212;2023-05-10T07:58:10;110367.09;;;-145.39;18.11
37078;BME280;22989;55.998;37.212;2023-05-10T08:00:35;109604.53;;;-145.39;17.97
37078;BME280;22989;55.998;37.212;2023-05-10T08:03:04;108842.16;;;-145.39;18.42
37078;BME280;22989;55.998;37.212;2023-05-10T08:05:30;108588.06;;;-145.39;18.64
37078;BME280;22989;55.998;37.212;2023-05-10T08:07:56;107317.81;;;-145.39;19.15
37078;BME280;22989;55.998;37.212;2023-05-10T08:10:21;106555.84;;;-145.39;19.53
37078;BME280;22989;55.998;37.212;2023-05-10T08:12:47;106301.91;;;-145.39;19.91
37078;BME280;22989;55.998;37.212;2023-05-10T08:15:12;105794.03;;;-145.39;20.01
37078;BME280;22989;55.998;37.212;2023-05-10T08:17:38;105032.34;;;-145.39;20.26
37078;BME280;22989;55.998;37.212;2023-05-10T08:20:03;104524.66;;;-145.39;20.48
37078;BME280;22989;55.998;37.212;2023-05-10T08:22:29;104524.66;;;-145.39;20.86
37078;BME280;22989;55.998;37.212;2023-05-10T08:24:54;104778.50;;;-145.39;21.08
37078;BME280;22989;55.998;37.212;2023-05-10T08:27:20;105794.03;;;-145.39;20.87
37078;BME280;22989;55.998;37.212;2023-05-10T08:29:45;105794.03;;;-145.39;20.30
37078;BME280;22989;55.998;37.212;2023-05-10T08:32:11;106047.97;;;-145.39;20.41
37078;BME280;22989;55.998;37.212;2023-05-10T08:34:36;106809.81;;;-145.39;20.29
37078;BME280;22989;55.998;37.212;2023-05-10T08:37:02;107317.81;;;-145.39;20.02
37078;BME280;22989;55.998;37.212;2023-05-10T08:39:27;107571.81;;;-145.39;19.98
37078;BME280;22989;55.998;37.212;2023-05-10T08:41:53;108588.06;;;-145.39;20.11
37078;BME280;22989;55.998;37.212;2023-05-10T08:44:19;109350.41;;;-145.39;20.06
37078;BME280;22989;55.998;37.212;2023-05-10T08:46:46;109858.72;;;-145.39;19.73
37078;BME280;22989;55.998;37.212;2023-05-10T08:49:13;109604.53;;;-145.39;19.41
37078;BME280;22989;55.998;37.212;2023-05-10T08:51:40;109604.53;;;-145.39;19.22
37078;BME280;22989;55.998;37.212;2023-05-10T08:54:08;109604.53;;;-145.39;19.35
37078;BME280;22989;55.998;37.212;2023-05-10T08:56:35;109858.72;;;-145.39;19.66
37078;BME280;22989;55.998;37.212;2023-05-10T08:59:01;109350.41;;;-145.39;19.30
37078;BME280;22989;55.998;37.212;2023-05-10T09:01:27;108079.91;;;-145.39;19.15
37078;BME280;22989;55.998;37.212;2023-05-10T09:03:53;107317.81;;;-145.39;19.65
37078;BME280;22989;55.998;37.212;2023-05-10T09:06:18;107571.81;;;-145.39;19.90
37078;BME280;22989;55.998;37.212;2023-05-10T09:08:44;107317.81;;;-145.39;20.03
37078;BME280;22989;55.998;37.212;2023-05-10T09:11:10;108079.91;;;-145.39;20.46
37078;BME280;22989;55.998;37.212;2023-05-10T09:13:36;109096.28;;;-145.39;20.77
37078;BME280;22989;55.998;37.212;2023-05-10T09:16:02;109096.28;;;-145.39;20.49
37078;BME280;22989;55.998;37.212;2023-05-10T09:18:28;108842.16;;;-145.39;20.48
37078;BME280;22989;55.998;37.212;2023-05-10T09:20:54;108588.06;;;-145.39;20.26
37078;BME280;22989;55.998;37.212;2023-05-10T09:23:19;108333.97;;;-145.39;20.49
37078;BME280;22989;55.998;37.212;2023-05-10T09:25:45;108333.97;;;-145.39;20.49
37078;BME280;22989;55.998;37.212;2023-05-10T09:28:11;108588.06;;;-145.39;20.75
37078;BME280;22989;55.998;37.212;2023-05-10T09:30:36;107317.81;;;-145.39;20.16
37078;BME280;22989;55.998;37.212;2023-05-10T09:33:01;106809.81;;;-145.39;20.57
37078;BME280;22989;55.998;37.212;2023-05-10T09:35:28;105794.03;;;-145.39;20.80
37078;BME280;22989;55.998;37.212;2023-05-10T09:37:54;105286.22;;;-145.39;21.17
37078;BME280;22989;55.998;37.212;2023-05-10T09:40:21;105286.22;;;-145.39;21.52
37078;BME280;22989;55.998;37.212;2023-05-10T09:45:36;106047.97;;;-145.39;20.96
37078;BME280;22989;55.998;37.212;2023-05-10T09:48:01;106047.97;;;-145.39;20.92
37078;BME280;22989;55.998;37.212;2023-05-10T09:50:28;106301.91;;;-145.39;20.72
37078;BME280;22989;55.998;37.212;2023-05-10T09:53:00;106555.84;;;-145.39;20.92
37078;BME280;22989;55.998;37.212;2023-05-10T09:55:37;107571.81;;;-145.39;20.84
37078;BME280;22989;55.998;37.212;2023-05-10T09:58:03;107825.88;;;-145.39;20.48
37078;BME280;22989;55.998;37.212;2023-05-10T10:00:34;108333.97;;;-145.39;20.51
37078;BME280;22989;55.998;37.212;2023-05-10T10:03:00;108842.16;;;-145.39;20.61
37078;BME280;22989;55.998;37.212;2023-05-10T10:05:32;109096.28;;;-145.39;20.51
37078;BME280;22989;55.998;37.212;2023-05-10T10:07:58;108842.16;;;-145.39;20.51
37078;BME280;22989;55.998;37.212;2023-05-10T10:10:24;108588.06;;;-145.39;20.48
37078;BME280;22989;55.998;37.212;2023-05-10T10:12:50;108333.97;;;-145.39;20.81
37078;BME280;22989;55.998;37.212;2023-05-10T10:15:15;108079.91;;;-145.39;20.85
37078;BME280;22989;55.998;37.212;2023-05-10T10:17:41;107825.88;;;-145.39;20.73
37078;BME280;22989;55.998;37.212;2023-05-10T10:20:08;107825.88;;;-145.39;20.85
37078;BME280;22989;55.998;37.212;2023-05-10T10:22:34;107825.88;;;-145.39;20.83
37078;BME280;22989;55.998;37.212;2023-05-10T10:24:59;107571.81;;;-145.39;20.78
37078;BME280;22989;55.998;37.212;2023-05-10T10:27:33;107317.81;;;-145.39;20.60
37078;BME280;22989;55.998;37.212;2023-05-10T10:30:03;107571.81;;;-145.39;20.68
37078;BME280;22989;55.998;37.212;2023-05-10T10:32:38;107317.81;;;-145.39;20.53
37078;BME280;22989;55.998;37.212;2023-05-10T10:35:07;107571.81;;;-145.39;20.71
37078;BME280;22989;55.998;37.212;2023-05-10T10:37:45;108079.91;;;-145.39;20.86
37078;BME280;22989;55.998;37.212;2023-05-10T10:42:48;107063.81;;;-145.39;20.80
37078;BME280;22989;55.998;37.212;2023-05-10T10:45:17;107317.81;;;-145.39;21.14
37078;BME280;22989;55.998;37.212;2023-05-10T10:47:42;107571.81;;;-145.39;21.03
37078;BME280;22989;55.998;37.212;2023-05-10T10:50:08;107571.81;;;-145.39;20.67
37078;BME280;22989;55.998;37.212;2023-05-10T10:52:36;107825.88;;;-145.39;20.75
37078;BME280;22989;55.998;37.212;2023-05-10T10:55:03;107825.88;;;-145.39;20.95
37078;BME280;22989;55.998;37.212;2023-05-10T10:57:33;108079.91;;;-145.39;20.87
37078;BME280;22989;55.998;37.212;2023-05-10T11:00:17;108333.97;;;-145.39;20.86
37078;BME280;22989;55.998;37.212;2023-05-10T11:02:43;108333.97;;;-145.39;20.71
37078;BME280;22989;55.998;37.212;2023-05-10T11:08:28;108842.16;;;-145.39;20.75
37078;BME280;22989;55.998;37.212;2023-05-10T11:13:29;108842.16;;;-145.39;20.82
37078;BME280;22989;55.998;37.212;2023-05-10T11:15:55;108842.16;;;-145.39;20.74
37078;BME280;22989;55.998;37.212;2023-05-10T11:18:29;108079.91;;;-145.39;20.71
37078;BME280;22989;55.998;37.212;2023-05-10T11:20:56;107317.81;;;-145.39;21.06
37078;BME280;22989;55.998;37.212;2023-05-10T11:23:23;106809.81;;;-145.39;21.14
37078;BME280;22989;55.998;37.212;2023-05-10T11:25:49;106809.81;;;-145.39;21.32
37078;BME280;22989;55.998;37.212;2023-05-10T11:28:16;106555.84;;;-145.39;21.46
37078;BME280;22989;55.998;37.212;2023-05-10T11:30:43;106047.97;;;-145.39;21.59
37078;BME280;22989;55.998;37.212;2023-05-10T11:33:09;106047.97;;;-145.39;21.88
37078;BME280;22989;55.998;37.212;2023-05-10T11:35:40;106301.91;;;-145.39;21.69
37078;BME280;22989;55.998;37.212;2023-05-10T11:38:12;106047.97;;;-145.39;21.76
37078;BME280;22989;55.998;37.212;2023-05-10T11:40:38;106555.84;;;-145.39;22.23
37078;BME280;22989;55.998;37.212;2023-05-10T11:43:04;107317.81;;;-145.39;22.31
37078;BME280;22989;55.998;37.212;2023-05-10T11:45:33;107825.88;;;-145.39;22.08
37078;BME280;22989;55.998;37.212;2023-05-10T11:47:59;108079.91;;;-145.39;21.67
37078;BME280;22989;55.998;37.212;2023-05-10T11:50:24;108333.97;;;-145.39;21.83
37078;BME280;22989;55.998;37.212;2023-05-10T11:52:54;108588.06;;;-145.39;21.59
37078;BME280;22989;55.998;37.212;2023-05-10T11:55:20;108588.06;;;-145.39;21.43
37078;BME280;22989;55.998;37.212;2023-05-10T11:57:46;107825.88;;;-145.39;21.51
37078;BME280;22989;55.998;37.212;2023-05-10T12:00:12;107825.88;;;-145.39;21.52
37078;BME280;22989;55.998;37.212;2023-05-10T12:02:38;107825.88;;;-145.39;21.55
37078;BME280;22989;55.998;37.212;2023-05-10T12:05:04;107825.88;;;-145.39;21.38
37078;BME280;22989;55.998;37.212;2023-05-10T12:07:30;108079.91;;;-145.39;21.50
37078;BME280;22989;55.998;37.212;2023-05-10T12:10:02;108333.97;;;-145.39;21.55
37078;BME280;22989;55.998;37.212;2023-05-10T12:12:34;108588.06;;;-145.39;21.62
37078;BME280;22989;55.998;37.212;2023-05-10T12:15:01;108333.97;;;-145.39;21.56
37078;BME280;22989;55.998;37.212;2023-05-10T12:17:28;107825.88;;;-145.39;21.57
37078;BME280;22989;55.998;37.212;2023-05-10T12:19:54;107571.81;;;-145.39;21.75
37078;BME280;22989;55.998;37.212;2023-05-10T12:22:20;107825.88;;;-145.39;21.95
37078;BME280;22989;55.998;37.212;2023-05-10T12:24:46;107825.88;;;-145.39;21.79
37078;BME280;22989;55.998;37.212;2023-05-10T12:27:11;108079.91;;;-145.39;21.68
37078;BME280;22989;55.998;37.212;2023-05-10T12:29:41;108333.97;;;-145.39;21.65
37078;BME280;22989;55.998;37.212;2023-05-10T12:32:08;108588.06;;;-145.39;21.77
37078;BME280;22989;55.998;37.212;2023-05-10T12:34:34;108842.16;;;-145.39;21.77
37078;BME280;22989;55.998;37.212;2023-05-10T12:37:01;108588.06;;;-145.39;21.45
37078;BME280;22989;55.998;37.212;2023-05-10T12:39:43;108588.06;;;-145.39;21.40
37078;BME280;22989;55.998;37.212;2023-05-10T12:42:09;108333.97;;;-145.39;21.37
37078;BME280;22989;55.998;37.212;2023-05-10T12:44:34;108079.91;;;-145.39;21.75
37078;BME280;22989;55.998;37.212;2023-05-10T12:47:00;108079.91;;;-145.39;21.78
37078;BME280;22989;55.998;37.212;2023-05-10T12:49:25;108079.91;;;-145.39;21.70
37078;BME280;22989;55.998;37.212;2023-05-10T12:51:50;108333.97;;;-145.39;21.98
37078;BME280;22989;55.998;37.212;2023-05-10T12:54:16;108333.97;;;-145.39;21.90
37078;BME280;22989;55.998;37.212;2023-05-10T12:56:42;108079.91;;;-145.39;21.66
37078;BME280;22989;55.998;37.212;2023-05-10T12:59:08;107825.88;;;-145.39;22.00